Farwood, Mississippi
Current Conditions -  °F | °C
As of 10:53 PM on Thursday 30 Oct 2014 (Local Time) from KMCB Reporting Station
Clear Clear  
Wind Chill: 47°   Ceiling: Unl
Heat Index: 49°   Visibility: 10mi
Dew Point: 43°   Wind: 5mph
Humidity: 80%   Direction: 330°NNW
Pressure: 30.07"   Gusts: NA
Location:  31.1804°N, 90.4473°W
Report Text: KMCB 310353Z AUTO 33004KT 10SM CLR 09/06 A3007 RMK AO2 SLP180 T00940061 PWINO $
Loading
Personal Weather Stations






























Interactive Weather Map
Tropical Storm Tracking
New forecast layout! Learn more

10-Day Weather Forecast

Advertisements
Track Severe Weather on mobile